createdAt,value
2022-12-03T00:00:17.363Z,0.00
2022-12-03T00:01:17.340Z,0.00
2022-12-03T00:02:17.480Z,0.00
2022-12-03T00:03:17.558Z,0.00
2022-12-03T00:04:17.313Z,0.00
2022-12-03T00:05:17.354Z,0.00
2022-12-03T00:06:17.314Z,0.00
2022-12-03T00:07:17.271Z,0.00
2022-12-03T00:08:17.339Z,0.00
2022-12-03T00:09:17.274Z,0.00
2022-12-03T00:10:17.251Z,0.00
2022-12-03T00:11:17.280Z,0.00
2022-12-03T00:12:17.236Z,0.00
2022-12-03T00:13:17.230Z,0.00
2022-12-03T00:14:17.234Z,0.00
2022-12-03T00:15:17.195Z,0.00
2022-12-03T00:16:17.239Z,0.00
2022-12-03T00:17:17.210Z,0.00
2022-12-03T00:18:17.160Z,0.00
2022-12-03T00:19:17.148Z,0.00
2022-12-03T00:20:17.152Z,0.00
2022-12-03T00:21:17.143Z,0.00
2022-12-03T00:22:17.125Z,0.00
2022-12-03T00:23:17.104Z,0.00
2022-12-03T00:24:17.122Z,0.00
2022-12-03T00:25:17.083Z,0.00
2022-12-03T00:26:17.073Z,0.00
2022-12-03T00:27:17.063Z,0.00
2022-12-03T00:28:17.067Z,0.00
2022-12-03T00:29:17.035Z,0.00
2022-12-03T00:30:17.057Z,0.00
2022-12-03T00:31:17.087Z,0.00
2022-12-03T00:32:16.998Z,0.00
2022-12-03T00:33:17.014Z,0.00
2022-12-03T00:34:17.053Z,0.00
2022-12-03T00:35:16.977Z,0.00
2022-12-03T00:36:17.006Z,0.00
2022-12-03T00:37:16.976Z,0.00
2022-12-03T00:38:16.946Z,0.00
2022-12-03T00:39:16.944Z,0.00
2022-12-03T00:40:16.925Z,0.00
2022-12-03T00:41:16.925Z,0.00
2022-12-03T00:42:16.925Z,0.00
2022-12-03T00:43:16.892Z,0.00
2022-12-03T00:44:16.920Z,0.00
2022-12-03T00:45:16.856Z,0.00
2022-12-03T00:46:21.119Z,0.00
2022-12-03T00:47:16.847Z,0.00
2022-12-03T00:48:16.858Z,0.00
2022-12-03T00:49:16.842Z,0.00
2022-12-03T00:50:16.869Z,0.00
2022-12-03T00:51:16.808Z,0.00
2022-12-03T00:52:16.799Z,0.00
2022-12-03T00:53:16.795Z,0.00
2022-12-03T00:54:16.799Z,0.00
2022-12-03T00:55:16.758Z,0.00
2022-12-03T00:56:16.796Z,0.00
2022-12-03T00:57:16.758Z,0.00
2022-12-03T00:58:16.762Z,0.00
2022-12-03T00:59:16.731Z,0.00
2022-12-03T01:00:16.773Z,0.00
2022-12-03T01:01:16.791Z,0.00
2022-12-03T01:02:16.798Z,0.00
2022-12-03T01:03:16.697Z,0.00
2022-12-03T01:04:16.759Z,0.00
2022-12-03T01:05:16.756Z,0.00
2022-12-03T01:06:18.622Z,0.00
2022-12-03T01:07:16.634Z,0.00
2022-12-03T01:08:16.644Z,0.00
2022-12-03T01:09:16.657Z,0.00
2022-12-03T01:10:16.635Z,0.00
2022-12-03T01:11:16.594Z,0.00
2022-12-03T01:12:16.635Z,0.00
2022-12-03T01:13:16.571Z,0.00
2022-12-03T01:14:16.573Z,0.00
2022-12-03T01:15:17.582Z,0.00
2022-12-03T01:16:16.627Z,0.00
2022-12-03T01:17:16.533Z,0.00
2022-12-03T01:18:16.543Z,0.00
2022-12-03T01:19:16.519Z,0.00
2022-12-03T01:20:16.495Z,0.00
2022-12-03T01:21:16.555Z,0.00
2022-12-03T01:22:16.482Z,0.00
2022-12-03T01:23:16.460Z,0.00
2022-12-03T01:24:16.511Z,0.00
2022-12-03T01:25:16.436Z,0.00
2022-12-03T01:26:16.435Z,0.00
2022-12-03T01:27:16.454Z,0.00
2022-12-03T01:28:16.406Z,0.00
2022-12-03T01:29:16.398Z,0.00
2022-12-03T01:30:16.456Z,0.00
2022-12-03T01:31:16.388Z,0.00
2022-12-03T01:32:16.384Z,0.00
2022-12-03T01:33:16.345Z,0.00
2022-12-03T01:34:16.357Z,0.00
2022-12-03T01:35:16.336Z,0.00
2022-12-03T01:36:16.366Z,0.00
2022-12-03T01:37:16.311Z,0.00
2022-12-03T01:38:16.315Z,0.00
2022-12-03T01:39:16.336Z,0.00
2022-12-03T01:40:16.297Z,0.00
2022-12-03T01:41:16.277Z,0.00
2022-12-03T01:42:16.281Z,0.00
2022-12-03T01:43:16.270Z,0.00
2022-12-03T01:44:16.289Z,0.00
2022-12-03T01:45:16.355Z,0.00
2022-12-03T01:46:16.306Z,0.00
2022-12-03T01:47:16.207Z,0.00
2022-12-03T01:48:16.249Z,0.00
2022-12-03T01:49:16.183Z,0.00
2022-12-03T01:50:16.178Z,0.00
2022-12-03T01:51:16.188Z,0.00
2022-12-03T01:52:16.169Z,0.00
2022-12-03T01:53:16.147Z,0.00
2022-12-03T01:54:16.139Z,0.00
2022-12-03T01:55:16.136Z,0.00
2022-12-03T01:56:16.249Z,0.00
2022-12-03T01:57:16.097Z,0.00
2022-12-03T01:58:16.089Z,0.00
2022-12-03T01:59:16.059Z,0.00
2022-12-03T02:00:16.125Z,0.00
2022-12-03T02:01:16.135Z,0.00
2022-12-03T02:02:16.133Z,0.00
2022-12-03T02:03:16.050Z,0.00
2022-12-03T02:04:16.127Z,0.00
2022-12-03T02:05:16.011Z,0.00
2022-12-03T02:06:16.023Z,0.00
2022-12-03T02:07:16.159Z,0.00
2022-12-03T02:08:16.082Z,0.00
2022-12-03T02:09:15.973Z,0.00
2022-12-03T02:10:15.971Z,0.00
2022-12-03T02:11:15.957Z,0.00
2022-12-03T02:12:15.938Z,0.00
2022-12-03T02:13:16.007Z,0.00
2022-12-03T02:14:15.931Z,0.00
2022-12-03T02:15:15.928Z,0.00
2022-12-03T02:16:16.035Z,0.00
2022-12-03T02:17:15.906Z,0.00
2022-12-03T02:18:15.859Z,0.00
2022-12-03T02:19:15.949Z,0.00
2022-12-03T02:20:15.842Z,0.00
2022-12-03T02:21:15.854Z,0.00
2022-12-03T02:22:15.840Z,0.00
2022-12-03T02:23:15.874Z,0.00
2022-12-03T02:24:15.847Z,0.00
2022-12-03T02:25:15.847Z,0.00
2022-12-03T02:26:15.793Z,0.00
2022-12-03T02:27:15.783Z,0.00
2022-12-03T02:28:15.775Z,0.00
2022-12-03T02:29:15.937Z,0.00
2022-12-03T02:30:15.736Z,0.00
2022-12-03T02:31:15.803Z,0.00
2022-12-03T02:32:15.733Z,0.00
2022-12-03T02:33:15.744Z,0.00
2022-12-03T02:34:15.704Z,0.00
2022-12-03T02:35:15.735Z,0.00
2022-12-03T02:36:15.686Z,0.00
2022-12-03T02:37:15.681Z,0.00
2022-12-03T02:38:15.661Z,0.00
2022-12-03T02:39:15.669Z,0.00
2022-12-03T02:40:15.684Z,0.00
2022-12-03T02:41:15.636Z,0.00
2022-12-03T02:42:15.618Z,0.00
2022-12-03T02:43:15.608Z,0.00
2022-12-03T02:44:15.599Z,0.00
2022-12-03T02:45:15.699Z,0.00
2022-12-03T02:46:15.612Z,0.00
2022-12-03T02:47:15.568Z,0.00
2022-12-03T02:48:15.537Z,0.00
2022-12-03T02:49:15.535Z,0.00
2022-12-03T02:50:15.528Z,0.00
2022-12-03T02:51:15.545Z,0.00
2022-12-03T02:52:15.538Z,0.00
2022-12-03T02:53:15.505Z,0.00
2022-12-03T02:54:15.486Z,0.00
2022-12-03T02:55:15.487Z,0.00
2022-12-03T02:56:15.532Z,0.00
2022-12-03T02:57:15.467Z,0.00
2022-12-03T02:58:15.469Z,0.00
2022-12-03T02:59:15.440Z,0.00
2022-12-03T03:00:15.429Z,0.00
2022-12-03T03:01:15.805Z,0.00
2022-12-03T03:02:15.485Z,0.00
2022-12-03T03:03:15.408Z,0.00
2022-12-03T03:04:15.415Z,0.00
2022-12-03T03:05:15.378Z,0.00
2022-12-03T03:06:15.348Z,0.00
2022-12-03T03:07:15.456Z,0.00
2022-12-03T03:08:15.394Z,0.00
2022-12-03T03:09:15.336Z,0.00
2022-12-03T03:10:15.334Z,0.00
2022-12-03T03:11:15.343Z,0.00
2022-12-03T03:12:15.322Z,0.00
2022-12-03T03:13:15.324Z,0.00
2022-12-03T03:14:15.271Z,0.00
2022-12-03T03:15:15.271Z,0.00
2022-12-03T03:16:15.324Z,0.00
2022-12-03T03:17:15.260Z,0.00
2022-12-03T03:18:15.265Z,0.00
2022-12-03T03:19:15.222Z,0.00
2022-12-03T03:20:15.220Z,0.00
2022-12-03T03:21:15.214Z,0.00
2022-12-03T03:22:15.195Z,0.00
2022-12-03T03:23:15.206Z,0.00
2022-12-03T03:24:15.183Z,0.00
2022-12-03T03:25:15.151Z,0.00
2022-12-03T03:26:15.185Z,0.00
2022-12-03T03:27:15.131Z,0.00
2022-12-03T03:28:15.121Z,0.00
2022-12-03T03:29:15.152Z,0.00
2022-12-03T03:30:15.105Z,0.00
2022-12-03T03:31:15.174Z,0.00
2022-12-03T03:32:15.093Z,0.00
2022-12-03T03:33:15.074Z,0.00
2022-12-03T03:34:15.122Z,0.00
2022-12-03T03:35:15.059Z,0.00
2022-12-03T03:36:15.034Z,0.00
2022-12-03T03:37:15.043Z,0.00
2022-12-03T03:38:15.032Z,0.00
2022-12-03T03:39:15.005Z,0.00
2022-12-03T03:40:15.055Z,0.00
2022-12-03T03:41:14.986Z,0.00
2022-12-03T03:42:14.973Z,0.00
2022-12-03T03:43:14.976Z,0.00
2022-12-03T03:44:14.967Z,0.00
2022-12-03T03:45:14.994Z,0.00
2022-12-03T03:46:15.010Z,0.00
2022-12-03T03:47:14.922Z,0.00
2022-12-03T03:48:14.916Z,0.00
2022-12-03T03:49:14.915Z,0.00
2022-12-03T03:50:14.927Z,0.00
2022-12-03T03:51:14.896Z,0.00
2022-12-03T03:52:14.896Z,0.00
2022-12-03T03:53:14.867Z,0.00
2022-12-03T03:54:14.847Z,0.00
2022-12-03T03:55:14.931Z,0.00
2022-12-03T03:56:14.827Z,0.00
2022-12-03T03:57:14.812Z,0.00
2022-12-03T03:58:14.812Z,0.00
2022-12-03T03:59:14.807Z,0.00
2022-12-03T04:00:14.826Z,0.00
2022-12-03T04:01:14.853Z,0.00
2022-12-03T04:02:14.757Z,0.00
2022-12-03T04:03:14.758Z,0.00
2022-12-03T04:04:14.817Z,0.00
2022-12-03T04:05:14.779Z,0.00
2022-12-03T04:06:14.727Z,0.00
2022-12-03T04:07:14.707Z,0.00
2022-12-03T04:08:14.748Z,0.00
2022-12-03T04:09:14.688Z,0.00
2022-12-03T04:10:14.722Z,0.00
2022-12-03T04:11:14.686Z,0.00
2022-12-03T04:12:14.659Z,0.00
2022-12-03T04:13:14.639Z,0.00
2022-12-03T04:14:14.654Z,0.00
2022-12-03T04:15:14.780Z,0.00
2022-12-03T04:16:14.651Z,0.00
2022-12-03T04:17:14.623Z,0.00
2022-12-03T04:18:14.589Z,0.00
2022-12-03T04:19:14.588Z,0.00
2022-12-03T04:20:14.575Z,0.00
2022-12-03T04:21:14.630Z,0.00
2022-12-03T04:22:14.580Z,0.00
2022-12-03T04:23:14.540Z,0.00
2022-12-03T04:24:14.545Z,0.00
2022-12-03T04:25:14.520Z,0.00
2022-12-03T04:26:14.556Z,0.00
2022-12-03T04:27:14.491Z,0.00
2022-12-03T04:28:14.506Z,0.00
2022-12-03T04:29:14.475Z,0.00
2022-12-03T04:30:14.462Z,0.00
2022-12-03T04:31:14.510Z,0.00
2022-12-03T04:32:14.471Z,0.00
2022-12-03T04:33:14.427Z,0.00
2022-12-03T04:34:14.430Z,0.00
2022-12-03T04:35:14.483Z,0.00
2022-12-03T04:36:14.394Z,0.00
2022-12-03T04:37:14.482Z,0.00
2022-12-03T04:38:14.385Z,0.00
2022-12-03T04:39:14.392Z,0.00
2022-12-03T04:40:14.396Z,0.00
2022-12-03T04:41:14.418Z,0.00
2022-12-03T04:42:14.343Z,0.00
2022-12-03T04:43:14.343Z,0.00
2022-12-03T04:44:14.337Z,0.00
2022-12-03T04:45:14.317Z,0.00
2022-12-03T04:46:14.364Z,0.00
2022-12-03T04:47:14.296Z,0.00
2022-12-03T04:48:14.338Z,0.00
2022-12-03T04:49:14.276Z,0.00
2022-12-03T04:50:14.274Z,0.00
2022-12-03T04:51:14.255Z,0.00
2022-12-03T04:52:14.298Z,0.00
2022-12-03T04:53:14.286Z,0.00
2022-12-03T04:54:14.215Z,0.00
2022-12-03T04:55:14.187Z,0.00
2022-12-03T04:56:14.245Z,0.00
2022-12-03T04:57:14.197Z,0.00
2022-12-03T04:58:14.185Z,0.00
2022-12-03T04:59:16.335Z,0.00
2022-12-03T05:00:14.156Z,0.00
2022-12-03T05:01:14.222Z,0.00
2022-12-03T05:02:14.190Z,0.00
2022-12-03T05:03:14.123Z,0.00
2022-12-03T05:04:14.308Z,0.00
2022-12-03T05:05:14.135Z,0.00
2022-12-03T05:06:14.089Z,0.00
2022-12-03T05:07:14.086Z,0.00
2022-12-03T05:08:14.158Z,0.00
2022-12-03T05:09:14.034Z,0.00
2022-12-03T05:10:14.060Z,0.00
2022-12-03T05:11:14.048Z,0.00
2022-12-03T05:12:14.041Z,0.00
2022-12-03T05:13:14.008Z,0.00
2022-12-03T05:14:14.035Z,0.00
2022-12-03T05:15:14.034Z,0.00
2022-12-03T05:16:13.986Z,0.00
2022-12-03T05:17:14.037Z,0.00
2022-12-03T05:18:13.965Z,0.00
2022-12-03T05:19:13.947Z,0.00
2022-12-03T05:20:13.951Z,0.00
2022-12-03T05:21:13.921Z,0.00
2022-12-03T05:22:13.912Z,0.00
2022-12-03T05:23:13.920Z,0.00
2022-12-03T05:24:13.896Z,0.00
2022-12-03T05:25:13.928Z,0.00
2022-12-03T05:26:13.880Z,0.00
2022-12-03T05:27:15.775Z,0.00
2022-12-03T05:28:14.854Z,0.00
2022-12-03T05:29:13.833Z,0.00
2022-12-03T05:30:13.848Z,0.00
2022-12-03T05:31:13.906Z,0.00
2022-12-03T05:32:13.816Z,0.00
2022-12-03T05:33:13.792Z,0.00
2022-12-03T05:34:13.831Z,0.00
2022-12-03T05:35:13.829Z,0.00
2022-12-03T05:36:13.781Z,0.00
2022-12-03T05:37:13.753Z,0.00
2022-12-03T05:38:13.760Z,0.00
2022-12-03T05:39:13.735Z,0.00
2022-12-03T05:40:13.793Z,0.00
2022-12-03T05:41:13.717Z,0.00
2022-12-03T05:42:13.705Z,0.00
2022-12-03T05:43:13.694Z,0.00
2022-12-03T05:44:18.829Z,0.00
2022-12-03T05:45:14.832Z,0.00
2022-12-03T05:46:13.735Z,0.00
2022-12-03T05:47:13.648Z,0.00
2022-12-03T05:48:13.646Z,0.00
2022-12-03T05:49:13.634Z,0.00
2022-12-03T05:50:13.625Z,0.00
2022-12-03T05:51:13.652Z,0.00
2022-12-03T05:52:13.609Z,0.00
2022-12-03T05:53:13.587Z,0.00
2022-12-03T05:54:13.610Z,0.00
2022-12-03T05:55:13.570Z,0.00
2022-12-03T05:56:13.545Z,0.00
2022-12-03T05:57:13.584Z,0.00
2022-12-03T05:58:13.535Z,0.00
2022-12-03T05:59:13.516Z,0.00
2022-12-03T06:00:13.537Z,0.00
2022-12-03T06:01:13.488Z,0.00
2022-12-03T06:02:13.640Z,0.00
2022-12-03T06:03:13.654Z,0.00
2022-12-03T06:04:13.480Z,0.00
2022-12-03T06:05:13.450Z,0.00
2022-12-03T06:06:13.488Z,0.00
2022-12-03T06:07:14.342Z,0.00
2022-12-03T06:08:13.508Z,0.00
2022-12-03T06:09:13.448Z,0.00
2022-12-03T06:10:13.428Z,0.00
2022-12-03T06:11:13.397Z,0.00
2022-12-03T06:12:13.398Z,0.00
2022-12-03T06:13:13.369Z,0.00
2022-12-03T06:14:13.390Z,0.00
2022-12-03T06:15:13.359Z,0.00
2022-12-03T06:16:13.459Z,0.00
2022-12-03T06:17:13.329Z,0.00
2022-12-03T06:18:13.314Z,0.00
2022-12-03T06:19:13.370Z,0.00
2022-12-03T06:20:13.319Z,0.00
2022-12-03T06:21:13.292Z,0.00
2022-12-03T06:22:13.281Z,0.00
2022-12-03T06:23:13.382Z,0.00
2022-12-03T06:24:13.270Z,0.00
2022-12-03T06:25:13.289Z,0.00
2022-12-03T06:26:13.245Z,0.00
2022-12-03T06:27:13.250Z,0.00
2022-12-03T06:28:13.242Z,0.00
2022-12-03T06:29:13.192Z,0.00
2022-12-03T06:30:13.210Z,0.00
2022-12-03T06:31:13.267Z,0.00
2022-12-03T06:32:13.192Z,0.00
2022-12-03T06:33:13.173Z,0.00
2022-12-03T06:34:13.193Z,0.00
2022-12-03T06:35:13.169Z,0.00
2022-12-03T06:36:13.150Z,0.00
2022-12-03T06:37:13.215Z,0.00
2022-12-03T06:38:13.122Z,0.00
2022-12-03T06:39:13.138Z,0.00
2022-12-03T06:40:13.103Z,0.00
2022-12-03T06:41:13.083Z,0.00
2022-12-03T06:42:13.062Z,0.00
2022-12-03T06:43:13.116Z,0.00
2022-12-03T06:44:13.064Z,0.00
2022-12-03T06:45:13.055Z,0.00
2022-12-03T06:46:13.108Z,0.00
2022-12-03T06:47:13.043Z,0.00
2022-12-03T06:48:13.013Z,0.00
2022-12-03T06:49:13.037Z,0.00
2022-12-03T06:50:13.005Z,0.00
2022-12-03T06:51:12.983Z,0.00
2022-12-03T06:52:13.003Z,0.00
2022-12-03T06:53:12.992Z,0.00
2022-12-03T06:54:12.949Z,0.00
2022-12-03T06:55:12.975Z,0.00
2022-12-03T06:56:12.912Z,0.00
2022-12-03T06:57:12.944Z,0.00
2022-12-03T06:58:12.935Z,0.00
2022-12-03T06:59:12.886Z,0.00
2022-12-03T07:00:12.905Z,0.00
2022-12-03T07:01:13.020Z,0.00
2022-12-03T07:02:12.948Z,0.00
2022-12-03T07:03:12.904Z,0.00
2022-12-03T07:04:12.899Z,0.00
2022-12-03T07:05:13.069Z,0.00
2022-12-03T07:06:13.804Z,0.00
2022-12-03T07:07:12.892Z,0.00
2022-12-03T07:08:12.980Z,0.00
2022-12-03T07:09:12.924Z,0.00
2022-12-03T07:10:13.828Z,0.00
2022-12-03T07:11:12.764Z,0.00
2022-12-03T07:12:12.813Z,0.00
2022-12-03T07:13:14.107Z,0.00
2022-12-03T07:14:12.760Z,0.00
2022-12-03T07:15:12.727Z,0.00
2022-12-03T07:16:12.783Z,0.00
2022-12-03T07:17:12.679Z,0.00
2022-12-03T07:18:12.685Z,4.00
2022-12-03T07:19:12.752Z,4.00
2022-12-03T07:20:12.655Z,4.00
2022-12-03T07:21:12.700Z,4.00
2022-12-03T07:22:12.659Z,4.00
2022-12-03T07:23:12.662Z,4.00
2022-12-03T07:24:12.688Z,4.00
2022-12-03T07:25:14.150Z,4.00
2022-12-03T07:26:12.707Z,4.00
2022-12-03T07:27:12.631Z,0.00
2022-12-03T07:28:12.594Z,0.00
2022-12-03T07:29:12.559Z,4.00
2022-12-03T07:30:12.578Z,0.00
2022-12-03T07:31:12.559Z,4.00
2022-12-03T07:32:12.533Z,4.00
2022-12-03T07:33:12.518Z,4.00
2022-12-03T07:34:12.568Z,4.00
2022-12-03T07:35:12.611Z,4.00
2022-12-03T07:36:12.529Z,4.00
2022-12-03T07:37:12.539Z,4.00
2022-12-03T07:38:12.487Z,8.00
2022-12-03T07:39:12.511Z,4.00
2022-12-03T07:40:12.485Z,4.00
2022-12-03T07:41:12.473Z,4.00
2022-12-03T07:42:12.432Z,4.00
2022-12-03T07:43:12.443Z,4.00
2022-12-03T07:44:14.483Z,0.00
2022-12-03T07:45:12.464Z,0.00
2022-12-03T07:46:12.512Z,0.00
2022-12-03T07:47:12.465Z,0.00
2022-12-03T07:48:12.484Z,0.00
2022-12-03T07:49:12.396Z,4.00
2022-12-03T07:50:12.384Z,4.00
2022-12-03T07:51:15.288Z,4.00
2022-12-03T07:52:12.474Z,4.00
2022-12-03T07:53:12.426Z,4.00
2022-12-03T07:54:12.385Z,4.00
2022-12-03T07:55:12.413Z,4.00
2022-12-03T07:56:12.487Z,4.00
2022-12-03T07:57:12.386Z,4.00
2022-12-03T07:58:12.382Z,4.00
2022-12-03T07:59:12.305Z,4.00
2022-12-03T08:00:12.394Z,4.00
2022-12-03T08:01:12.349Z,4.00
2022-12-03T08:02:15.675Z,4.00
2022-12-03T08:03:13.409Z,4.00
2022-12-03T08:04:12.299Z,8.00
2022-12-03T08:05:12.237Z,8.00
2022-12-03T08:06:12.281Z,8.00
2022-12-03T08:07:12.346Z,8.00
2022-12-03T08:08:12.388Z,4.00
2022-12-03T08:09:16.026Z,8.00
2022-12-03T08:10:12.216Z,8.00
2022-12-03T08:11:12.237Z,12.00
2022-12-03T08:12:12.248Z,8.00
2022-12-03T08:13:12.267Z,12.00
2022-12-03T08:14:12.139Z,12.00
2022-12-03T08:15:12.149Z,8.00
2022-12-03T08:16:12.303Z,12.00
2022-12-03T08:17:12.274Z,12.00
2022-12-03T08:18:12.238Z,12.00
2022-12-03T08:19:12.166Z,12.00
2022-12-03T08:20:12.297Z,12.00
2022-12-03T08:21:12.216Z,12.00
2022-12-03T08:22:12.132Z,12.00
2022-12-03T08:23:12.098Z,12.00
2022-12-03T08:24:12.038Z,8.00
2022-12-03T08:25:12.112Z,8.00
2022-12-03T08:26:12.157Z,12.00
2022-12-03T08:27:12.147Z,12.00
2022-12-03T08:28:12.155Z,12.00
2022-12-03T08:29:12.150Z,8.00
2022-12-03T08:30:16.231Z,12.00
2022-12-03T08:31:12.662Z,8.00
2022-12-03T08:32:12.288Z,8.00
2022-12-03T08:33:12.075Z,8.00
2022-12-03T08:34:11.912Z,8.00
2022-12-03T08:35:11.972Z,8.00
2022-12-03T08:36:11.900Z,12.00
2022-12-03T08:37:11.858Z,12.00
2022-12-03T08:38:11.944Z,12.00
2022-12-03T08:39:11.895Z,12.00
2022-12-03T08:40:11.912Z,12.00
2022-12-03T08:41:11.902Z,12.00
2022-12-03T08:42:13.864Z,16.00
2022-12-03T08:43:11.906Z,16.00
2022-12-03T08:44:11.792Z,20.00
2022-12-03T08:45:11.916Z,16.00
2022-12-03T08:46:11.850Z,16.00
2022-12-03T08:47:11.832Z,16.00
2022-12-03T08:48:11.845Z,16.00
2022-12-03T08:49:11.732Z,12.00
2022-12-03T08:50:11.802Z,12.00
2022-12-03T08:51:11.799Z,8.00
2022-12-03T08:52:11.767Z,8.00
2022-12-03T08:53:11.743Z,8.00
2022-12-03T08:54:11.735Z,8.00
2022-12-03T08:55:11.676Z,4.00
2022-12-03T08:56:11.730Z,8.00
2022-12-03T08:57:11.687Z,8.00
2022-12-03T08:58:11.723Z,8.00
2022-12-03T08:59:11.658Z,8.00
2022-12-03T09:00:11.708Z,12.00
2022-12-03T09:01:11.757Z,12.00
2022-12-03T09:02:11.648Z,8.00
2022-12-03T09:03:11.663Z,12.00
2022-12-03T09:04:11.692Z,12.00
2022-12-03T09:05:11.602Z,8.00
2022-12-03T09:06:11.615Z,12.00
2022-12-03T09:07:11.573Z,12.00
2022-12-03T09:08:11.773Z,12.00
2022-12-03T09:09:11.607Z,16.00
2022-12-03T09:10:11.567Z,16.00
2022-12-03T09:11:11.585Z,16.00
2022-12-03T09:12:11.549Z,16.00
2022-12-03T09:13:11.577Z,16.00
2022-12-03T09:14:18.140Z,16.00
2022-12-03T09:15:12.533Z,12.00
2022-12-03T09:16:11.541Z,16.00
2022-12-03T09:17:11.618Z,12.00
2022-12-03T09:18:12.123Z,12.00
2022-12-03T09:19:11.479Z,8.00
2022-12-03T09:20:11.438Z,12.00
2022-12-03T09:21:11.658Z,8.00
2022-12-03T09:22:11.417Z,8.00
2022-12-03T09:23:11.421Z,12.00
2022-12-03T09:24:11.425Z,12.00
2022-12-03T09:25:11.428Z,12.00
2022-12-03T09:26:11.460Z,8.00
2022-12-03T09:27:11.391Z,8.00
2022-12-03T09:28:11.460Z,8.00
2022-12-03T09:29:12.654Z,8.00
2022-12-03T09:30:11.403Z,8.00
2022-12-03T09:31:11.298Z,8.00
2022-12-03T09:32:16.663Z,8.00
2022-12-03T09:33:12.301Z,8.00
2022-12-03T09:34:11.343Z,8.00
2022-12-03T09:35:11.326Z,8.00
2022-12-03T09:36:11.437Z,12.00
2022-12-03T09:37:11.262Z,12.00
2022-12-03T09:38:11.273Z,12.00
2022-12-03T09:39:11.219Z,8.00
2022-12-03T09:40:11.260Z,12.00
2022-12-03T09:41:11.221Z,8.00
2022-12-03T09:42:11.279Z,8.00
2022-12-03T09:43:11.216Z,12.00
2022-12-03T09:44:17.512Z,16.00
2022-12-03T09:45:12.183Z,12.00
2022-12-03T09:46:11.231Z,12.00
2022-12-03T09:47:11.180Z,12.00
2022-12-03T09:48:11.153Z,12.00
2022-12-03T09:49:15.830Z,8.00
2022-12-03T09:50:12.091Z,8.00
2022-12-03T09:51:11.244Z,12.00
2022-12-03T09:52:11.220Z,12.00
2022-12-03T09:53:11.084Z,8.00
2022-12-03T09:54:11.091Z,8.00
2022-12-03T09:55:11.064Z,12.00
2022-12-03T09:56:11.052Z,12.00
2022-12-03T09:57:11.081Z,12.00
2022-12-03T09:58:11.024Z,12.00
2022-12-03T09:59:11.042Z,8.00
2022-12-03T10:00:11.026Z,8.00
2022-12-03T10:01:11.105Z,12.00
2022-12-03T10:02:10.994Z,12.00
2022-12-03T10:03:11.082Z,12.00
2022-12-03T10:04:11.004Z,16.00
2022-12-03T10:05:11.039Z,16.00
2022-12-03T10:06:10.984Z,12.00
2022-12-03T10:07:10.927Z,16.00
2022-12-03T10:08:11.088Z,16.00
2022-12-03T10:09:11.061Z,20.00
2022-12-03T10:10:10.905Z,24.00
2022-12-03T10:11:10.893Z,28.00
2022-12-03T10:12:10.866Z,28.00
2022-12-03T10:13:10.874Z,32.00
2022-12-03T10:14:10.874Z,36.00
2022-12-03T10:15:10.921Z,32.00
2022-12-03T10:16:10.918Z,28.00
2022-12-03T10:17:10.897Z,28.00
2022-12-03T10:18:10.805Z,32.00
2022-12-03T10:19:10.827Z,28.00
2022-12-03T10:20:10.990Z,32.00
2022-12-03T10:21:10.875Z,32.00
2022-12-03T10:22:10.789Z,32.00
2022-12-03T10:23:10.818Z,36.00
2022-12-03T10:24:10.760Z,36.00
2022-12-03T10:25:10.759Z,40.00
2022-12-03T10:26:10.726Z,40.00
2022-12-03T10:27:10.802Z,44.00
2022-12-03T10:28:10.711Z,40.00
2022-12-03T10:29:10.740Z,36.00
2022-12-03T10:30:10.715Z,36.00
2022-12-03T10:31:10.745Z,32.00
2022-12-03T10:32:10.689Z,32.00
2022-12-03T10:33:14.375Z,28.00
2022-12-03T10:34:11.701Z,28.00
2022-12-03T10:35:10.743Z,28.00
2022-12-03T10:36:10.625Z,24.00
2022-12-03T10:37:10.749Z,24.00
2022-12-03T10:38:10.608Z,24.00
2022-12-03T10:39:10.631Z,28.00
2022-12-03T10:40:10.621Z,28.00
2022-12-03T10:41:10.559Z,24.00
2022-12-03T10:42:10.687Z,20.00
2022-12-03T10:43:10.548Z,20.00
2022-12-03T10:44:10.501Z,24.00
2022-12-03T10:45:10.585Z,20.00
2022-12-03T10:46:10.669Z,24.00
2022-12-03T10:47:10.700Z,24.00
2022-12-03T10:48:10.539Z,32.00
2022-12-03T10:49:10.518Z,32.00
2022-12-03T10:50:10.518Z,32.00
2022-12-03T10:51:10.472Z,28.00
2022-12-03T10:52:10.472Z,28.00
2022-12-03T10:53:10.476Z,32.00
2022-12-03T10:54:10.446Z,28.00
2022-12-03T10:55:10.493Z,24.00
2022-12-03T10:56:10.470Z,24.00
2022-12-03T10:57:10.440Z,24.00
2022-12-03T10:58:10.434Z,20.00
2022-12-03T10:59:10.381Z,24.00
2022-12-03T11:00:10.401Z,28.00
2022-12-03T11:01:10.502Z,24.00
2022-12-03T11:02:10.418Z,20.00
2022-12-03T11:03:10.347Z,24.00
2022-12-03T11:04:10.340Z,24.00
2022-12-03T11:05:10.296Z,24.00
2022-12-03T11:06:10.255Z,24.00
2022-12-03T11:07:10.325Z,24.00
2022-12-03T11:08:10.380Z,20.00
2022-12-03T11:09:10.234Z,24.00
2022-12-03T11:10:10.236Z,24.00
2022-12-03T11:11:10.304Z,24.00
2022-12-03T11:12:10.355Z,20.00
2022-12-03T11:13:10.262Z,24.00
2022-12-03T11:14:10.256Z,24.00
2022-12-03T11:15:10.213Z,24.00
2022-12-03T11:16:10.247Z,24.00
2022-12-03T11:17:10.196Z,24.00
2022-12-03T11:18:10.180Z,24.00
2022-12-03T11:19:10.155Z,24.00
2022-12-03T11:20:10.183Z,24.00
2022-12-03T11:21:10.147Z,20.00
2022-12-03T11:22:10.140Z,20.00
2022-12-03T11:23:10.151Z,20.00
2022-12-03T11:24:10.076Z,20.00
2022-12-03T11:25:10.145Z,20.00
2022-12-03T11:26:13.035Z,20.00
2022-12-03T11:27:11.056Z,20.00
2022-12-03T11:28:10.138Z,20.00
2022-12-03T11:29:10.047Z,20.00
2022-12-03T11:30:10.084Z,20.00
2022-12-03T11:31:10.138Z,20.00
2022-12-03T11:32:10.031Z,20.00
2022-12-03T11:33:10.068Z,20.00
2022-12-03T11:34:09.980Z,20.00
2022-12-03T11:35:10.018Z,20.00
2022-12-03T11:36:09.969Z,20.00
2022-12-03T11:37:10.061Z,16.00
2022-12-03T11:38:09.968Z,20.00
2022-12-03T11:39:09.946Z,16.00
2022-12-03T11:40:10.009Z,16.00
2022-12-03T11:41:09.961Z,16.00
2022-12-03T11:42:09.950Z,16.00
2022-12-03T11:43:09.904Z,16.00
2022-12-03T11:44:09.872Z,12.00
2022-12-03T11:45:09.880Z,12.00
2022-12-03T11:46:09.974Z,16.00
2022-12-03T11:47:09.850Z,16.00
2022-12-03T11:48:09.871Z,16.00
2022-12-03T11:49:09.845Z,16.00
2022-12-03T11:50:10.801Z,16.00
2022-12-03T11:51:09.803Z,16.00
2022-12-03T11:52:09.795Z,16.00
2022-12-03T11:53:09.870Z,16.00
2022-12-03T11:54:09.803Z,12.00
2022-12-03T11:55:09.820Z,16.00
2022-12-03T11:56:09.782Z,16.00
2022-12-03T11:57:09.821Z,12.00
2022-12-03T11:58:09.769Z,12.00
2022-12-03T11:59:09.757Z,12.00
2022-12-03T12:00:09.738Z,12.00
2022-12-03T12:01:09.823Z,12.00
2022-12-03T12:02:09.704Z,12.00
2022-12-03T12:03:09.829Z,12.00
2022-12-03T12:04:09.759Z,8.00
2022-12-03T12:05:09.705Z,12.00
2022-12-03T12:06:09.665Z,8.00
2022-12-03T12:07:09.663Z,8.00
2022-12-03T12:08:09.802Z,8.00
2022-12-03T12:09:09.620Z,8.00
2022-12-03T12:10:09.607Z,8.00
2022-12-03T12:11:09.667Z,8.00
2022-12-03T12:12:09.652Z,8.00
2022-12-03T12:13:09.586Z,8.00
2022-12-03T12:14:09.637Z,8.00
2022-12-03T12:15:09.566Z,8.00
2022-12-03T12:16:09.527Z,12.00
2022-12-03T12:17:09.538Z,8.00
2022-12-03T12:18:09.551Z,8.00
2022-12-03T12:19:09.575Z,8.00
2022-12-03T12:20:09.543Z,8.00
2022-12-03T12:21:09.533Z,12.00
2022-12-03T12:22:09.508Z,8.00
2022-12-03T12:23:09.455Z,8.00
2022-12-03T12:24:09.530Z,12.00
2022-12-03T12:25:09.494Z,8.00
2022-12-03T12:26:09.427Z,8.00
2022-12-03T12:27:09.410Z,12.00
2022-12-03T12:28:09.386Z,8.00
2022-12-03T12:29:09.477Z,12.00
2022-12-03T12:30:09.418Z,12.00
2022-12-03T12:31:09.441Z,12.00
2022-12-03T12:32:09.541Z,16.00
2022-12-03T12:33:09.381Z,16.00
2022-12-03T12:34:09.348Z,12.00
2022-12-03T12:35:09.357Z,16.00
2022-12-03T12:36:09.339Z,16.00
2022-12-03T12:37:09.391Z,16.00
2022-12-03T12:38:09.368Z,16.00
2022-12-03T12:39:09.289Z,16.00
2022-12-03T12:40:09.278Z,16.00
2022-12-03T12:41:09.315Z,20.00
2022-12-03T12:42:09.259Z,16.00
2022-12-03T12:43:13.488Z,20.00
2022-12-03T12:44:10.281Z,16.00
2022-12-03T12:45:09.328Z,20.00
2022-12-03T12:46:31.456Z,20.00
2022-12-03T12:47:10.296Z,20.00
2022-12-03T12:48:09.168Z,20.00
2022-12-03T12:49:09.299Z,16.00
2022-12-03T12:50:09.214Z,16.00
2022-12-03T12:51:09.230Z,16.00
2022-12-03T12:52:09.168Z,16.00
2022-12-03T12:53:09.200Z,12.00
2022-12-03T12:54:09.134Z,12.00
2022-12-03T12:55:09.162Z,12.00
2022-12-03T12:56:09.161Z,16.00
2022-12-03T12:57:09.103Z,12.00
2022-12-03T12:58:09.162Z,12.00
2022-12-03T12:59:09.113Z,16.00
2022-12-03T13:00:09.101Z,12.00
2022-12-03T13:01:09.284Z,12.00
2022-12-03T13:02:10.386Z,8.00
2022-12-03T13:03:09.090Z,12.00
2022-12-03T13:04:09.086Z,8.00
2022-12-03T13:05:09.020Z,8.00
2022-12-03T13:06:09.012Z,12.00
2022-12-03T13:07:08.991Z,12.00
2022-12-03T13:08:10.539Z,8.00
2022-12-03T13:09:08.986Z,8.00
2022-12-03T13:10:08.953Z,4.00